Clarksville, Missouri
Current Conditions -  °F | °C
As of 7:55 PM on Saturday 22 Nov 2014 (Local Time) from KPPQ Reporting Station
Overcast Overcast  
Wind Chill: 54°   Ceiling: 1600
Heat Index: 54°   Visibility: 10mi
Dew Point: 49°   Wind: 15mph
Humidity: 83%   Direction: 180°S
Pressure: 29.88"   Gusts: NA
Location:  39.37°N, 90.91°W
Report Text: KPPQ 230155Z AUTO 18013KT 10SM BKN016 OVC080 12/09 A2988 RMK AO2 T01200092 PWINO
Loading
Personal Weather Stations






























Interactive Weather Map New forecast layout! Learn more

10-Day Weather Forecast

Advertisements
Track Severe Weather on mobile